sensor_id;sensor_type;location;lat;lon;timestamp;P1;durP1;ratioP1;P2;durP2;ratioP2
10246;SDS011;5168;47.854;7.944;2023-02-26T00:02:14;4.80;;;2.60;;
10246;SDS011;5168;47.854;7.944;2023-02-26T00:04:40;2.60;;;2.40;;
10246;SDS011;5168;47.854;7.944;2023-02-26T00:07:06;2.50;;;2.30;;
10246;SDS011;5168;47.854;7.944;2023-02-26T00:09:32;4.03;;;2.43;;
10246;SDS011;5168;47.854;7.944;2023-02-26T00:11:58;4.33;;;2.43;;
10246;SDS011;5168;47.854;7.944;2023-02-26T00:14:24;2.50;;;2.30;;
10246;SDS011;5168;47.854;7.944;2023-02-26T00:16:54;4.37;;;2.80;;
10246;SDS011;5168;47.854;7.944;2023-02-26T00:19:32;2.80;;;2.60;;
10246;SDS011;5168;47.854;7.944;2023-02-26T00:21:57;4.90;;;2.50;;
10246;SDS011;5168;47.854;7.944;2023-02-26T00:24:24;4.57;;;2.60;;
10246;SDS011;5168;47.854;7.944;2023-02-26T00:26:50;3.27;;;2.93;;
10246;SDS011;5168;47.854;7.944;2023-02-26T00:29:16;2.67;;;2.53;;
10246;SDS011;5168;47.854;7.944;2023-02-26T00:31:41;2.70;;;2.50;;
10246;SDS011;5168;47.854;7.944;2023-02-26T00:34:11;6.40;;;2.77;;
10246;SDS011;5168;47.854;7.944;2023-02-26T00:41:58;3.77;;;2.53;;
10246;SDS011;5168;47.854;7.944;2023-02-26T00:44:23;3.10;;;2.77;;
10246;SDS011;5168;47.854;7.944;2023-02-26T00:47:08;2.77;;;2.57;;
10246;SDS011;5168;47.854;7.944;2023-02-26T00:55:16;2.80;;;2.60;;
10246;SDS011;5168;47.854;7.944;2023-02-26T00:57:43;3.63;;;2.30;;
10246;SDS011;5168;47.854;7.944;2023-02-26T01:00:09;4.10;;;3.00;;
10246;SDS011;5168;47.854;7.944;2023-02-26T01:02:36;3.17;;;2.70;;
10246;SDS011;5168;47.854;7.944;2023-02-26T01:05:03;2.60;;;2.40;;
10246;SDS011;5168;47.854;7.944;2023-02-26T01:07:32;4.87;;;2.50;;
10246;SDS011;5168;47.854;7.944;2023-02-26T01:10:09;3.00;;;2.70;;
10246;SDS011;5168;47.854;7.944;2023-02-26T01:12:35;2.87;;;2.67;;
10246;SDS011;5168;47.854;7.944;2023-02-26T01:15:02;3.57;;;2.73;;
10246;SDS011;5168;47.854;7.944;2023-02-26T01:17:33;3.40;;;2.97;;
10246;SDS011;5168;47.854;7.944;2023-02-26T01:20:20;2.70;;;2.37;;
10246;SDS011;5168;47.854;7.944;2023-02-26T01:22:54;8.20;;;2.50;;
10246;SDS011;5168;47.854;7.944;2023-02-26T01:25:29;2.60;;;2.40;;
10246;SDS011;5168;47.854;7.944;2023-02-26T01:27:59;5.40;;;2.50;;
10246;SDS011;5168;47.854;7.944;2023-02-26T01:30:25;2.77;;;2.10;;
10246;SDS011;5168;47.854;7.944;2023-02-26T01:38:03;2.93;;;2.67;;
10246;SDS011;5168;47.854;7.944;2023-02-26T01:40:53;3.50;;;2.80;;
10246;SDS011;5168;47.854;7.944;2023-02-26T01:43:34;2.87;;;2.60;;
10246;SDS011;5168;47.854;7.944;2023-02-26T01:46:21;2.50;;;2.40;;
10246;SDS011;5168;47.854;7.944;2023-02-26T01:49:16;4.00;;;2.73;;
10246;SDS011;5168;47.854;7.944;2023-02-26T01:51:50;2.83;;;2.60;;
10246;SDS011;5168;47.854;7.944;2023-02-26T01:54:24;2.50;;;2.30;;
10246;SDS011;5168;47.854;7.944;2023-02-26T01:57:08;2.90;;;2.70;;
10246;SDS011;5168;47.854;7.944;2023-02-26T01:59:37;4.07;;;2.60;;
10246;SDS011;5168;47.854;7.944;2023-02-26T02:02:11;3.37;;;2.63;;
10246;SDS011;5168;47.854;7.944;2023-02-26T02:04:40;3.43;;;2.60;;
10246;SDS011;5168;47.854;7.944;2023-02-26T02:07:06;4.47;;;2.60;;
10246;SDS011;5168;47.854;7.944;2023-02-26T02:09:32;2.90;;;2.60;;
10246;SDS011;5168;47.854;7.944;2023-02-26T02:25:48;3.90;;;2.60;;
10246;SDS011;5168;47.854;7.944;2023-02-26T02:31:32;4.17;;;2.83;;
10246;SDS011;5168;47.854;7.944;2023-02-26T02:33:53;3.27;;;2.37;;
10246;SDS011;5168;47.854;7.944;2023-02-26T02:36:44;2.80;;;2.60;;
10246;SDS011;5168;47.854;7.944;2023-02-26T02:39:15;3.00;;;2.73;;
10246;SDS011;5168;47.854;7.944;2023-02-26T02:42:15;3.63;;;2.80;;
10246;SDS011;5168;47.854;7.944;2023-02-26T02:44:48;2.87;;;2.67;;
10246;SDS011;5168;47.854;7.944;2023-02-26T02:47:20;3.10;;;2.80;;
10246;SDS011;5168;47.854;7.944;2023-02-26T02:49:50;3.20;;;2.40;;
10246;SDS011;5168;47.854;7.944;2023-02-26T02:52:31;2.50;;;2.30;;
10246;SDS011;5168;47.854;7.944;2023-02-26T02:55:04;3.10;;;2.50;;
10246;SDS011;5168;47.854;7.944;2023-02-26T02:57:36;3.10;;;2.80;;
10246;SDS011;5168;47.854;7.944;2023-02-26T03:00:08;3.17;;;2.90;;
10246;SDS011;5168;47.854;7.944;2023-02-26T03:02:42;3.47;;;2.70;;
10246;SDS011;5168;47.854;7.944;2023-02-26T03:05:09;3.30;;;3.00;;
10246;SDS011;5168;47.854;7.944;2023-02-26T03:07:37;2.83;;;2.63;;
10246;SDS011;5168;47.854;7.944;2023-02-26T03:10:08;2.83;;;2.53;;
10246;SDS011;5168;47.854;7.944;2023-02-26T03:12:34;3.00;;;2.63;;
10246;SDS011;5168;47.854;7.944;2023-02-26T03:15:00;2.67;;;2.47;;
10246;SDS011;5168;47.854;7.944;2023-02-26T03:17:30;3.23;;;2.93;;
10246;SDS011;5168;47.854;7.944;2023-02-26T03:20:22;3.23;;;2.50;;
10246;SDS011;5168;47.854;7.944;2023-02-26T03:23:04;2.70;;;2.50;;
10246;SDS011;5168;47.854;7.944;2023-02-26T03:25:45;3.67;;;2.90;;
10246;SDS011;5168;47.854;7.944;2023-02-26T03:31:08;2.90;;;2.70;;
10246;SDS011;5168;47.854;7.944;2023-02-26T03:36:35;2.83;;;2.63;;
10246;SDS011;5168;47.854;7.944;2023-02-26T03:39:13;2.37;;;2.17;;
10246;SDS011;5168;47.854;7.944;2023-02-26T03:41:46;3.03;;;2.70;;
10246;SDS011;5168;47.854;7.944;2023-02-26T03:44:34;3.10;;;2.80;;
10246;SDS011;5168;47.854;7.944;2023-02-26T03:47:04;2.63;;;2.53;;
10246;SDS011;5168;47.854;7.944;2023-02-26T03:49:34;2.83;;;2.60;;
10246;SDS011;5168;47.854;7.944;2023-02-26T03:52:05;2.60;;;2.40;;
10246;SDS011;5168;47.854;7.944;2023-02-26T03:54:36;2.90;;;2.33;;
10246;SDS011;5168;47.854;7.944;2023-02-26T03:57:06;3.70;;;2.70;;
10246;SDS011;5168;47.854;7.944;2023-02-26T03:59:32;3.00;;;2.40;;
10246;SDS011;5168;47.854;7.944;2023-02-26T04:02:16;3.43;;;2.70;;
10246;SDS011;5168;47.854;7.944;2023-02-26T04:04:53;2.43;;;2.23;;
10246;SDS011;5168;47.854;7.944;2023-02-26T04:07:25;2.50;;;2.30;;
10246;SDS011;5168;47.854;7.944;2023-02-26T04:09:51;2.57;;;2.37;;
10246;SDS011;5168;47.854;7.944;2023-02-26T04:12:20;3.50;;;2.57;;
10246;SDS011;5168;47.854;7.944;2023-02-26T04:14:47;4.43;;;2.43;;
10246;SDS011;5168;47.854;7.944;2023-02-26T04:17:15;3.10;;;2.40;;
10246;SDS011;5168;47.854;7.944;2023-02-26T04:19:41;2.70;;;2.47;;
10246;SDS011;5168;47.854;7.944;2023-02-26T04:22:07;2.93;;;2.63;;
10246;SDS011;5168;47.854;7.944;2023-02-26T04:24:33;2.70;;;2.50;;
10246;SDS011;5168;47.854;7.944;2023-02-26T04:26:59;2.67;;;2.47;;
10246;SDS011;5168;47.854;7.944;2023-02-26T04:29:24;2.60;;;2.20;;
10246;SDS011;5168;47.854;7.944;2023-02-26T04:31:51;1.93;;;1.83;;
10246;SDS011;5168;47.854;7.944;2023-02-26T04:34:20;2.10;;;2.00;;
10246;SDS011;5168;47.854;7.944;2023-02-26T04:36:45;2.63;;;2.40;;
10246;SDS011;5168;47.854;7.944;2023-02-26T04:39:11;2.60;;;2.40;;
10246;SDS011;5168;47.854;7.944;2023-02-26T04:41:37;2.77;;;2.53;;
10246;SDS011;5168;47.854;7.944;2023-02-26T04:44:03;2.50;;;2.30;;
10246;SDS011;5168;47.854;7.944;2023-02-26T04:46:29;2.60;;;2.37;;
10246;SDS011;5168;47.854;7.944;2023-02-26T04:48:56;2.90;;;2.47;;
10246;SDS011;5168;47.854;7.944;2023-02-26T04:51:21;2.67;;;2.47;;
10246;SDS011;5168;47.854;7.944;2023-02-26T04:53:47;2.90;;;2.70;;
10246;SDS011;5168;47.854;7.944;2023-02-26T04:56:13;2.70;;;2.50;;
10246;SDS011;5168;47.854;7.944;2023-02-26T04:58:38;2.83;;;2.30;;
10246;SDS011;5168;47.854;7.944;2023-02-26T05:01:04;2.60;;;2.40;;
10246;SDS011;5168;47.854;7.944;2023-02-26T05:03:30;2.50;;;2.30;;
10246;SDS011;5168;47.854;7.944;2023-02-26T05:05:56;2.90;;;2.60;;
10246;SDS011;5168;47.854;7.944;2023-02-26T05:08:22;2.93;;;2.43;;
10246;SDS011;5168;47.854;7.944;2023-02-26T05:10:49;2.80;;;2.60;;
10246;SDS011;5168;47.854;7.944;2023-02-26T05:13:17;4.10;;;2.63;;
10246;SDS011;5168;47.854;7.944;2023-02-26T05:15:43;3.07;;;2.27;;
10246;SDS011;5168;47.854;7.944;2023-02-26T05:18:10;4.73;;;2.50;;
10246;SDS011;5168;47.854;7.944;2023-02-26T05:20:35;3.17;;;2.50;;
10246;SDS011;5168;47.854;7.944;2023-02-26T05:23:03;2.43;;;2.23;;
10246;SDS011;5168;47.854;7.944;2023-02-26T05:25:28;3.30;;;2.70;;
10246;SDS011;5168;47.854;7.944;2023-02-26T05:27:54;3.30;;;2.40;;
10246;SDS011;5168;47.854;7.944;2023-02-26T05:30:19;3.23;;;2.23;;
10246;SDS011;5168;47.854;7.944;2023-02-26T05:32:46;3.27;;;2.57;;
10246;SDS011;5168;47.854;7.944;2023-02-26T05:35:12;4.17;;;2.50;;
10246;SDS011;5168;47.854;7.944;2023-02-26T05:37:38;2.50;;;2.30;;
10246;SDS011;5168;47.854;7.944;2023-02-26T05:40:04;3.53;;;2.40;;
10246;SDS011;5168;47.854;7.944;2023-02-26T05:42:33;3.60;;;2.50;;
10246;SDS011;5168;47.854;7.944;2023-02-26T05:44:58;4.87;;;2.33;;
10246;SDS011;5168;47.854;7.944;2023-02-26T05:47:24;3.47;;;2.30;;
10246;SDS011;5168;47.854;7.944;2023-02-26T05:49:50;2.77;;;2.30;;
10246;SDS011;5168;47.854;7.944;2023-02-26T05:52:17;2.33;;;2.13;;
10246;SDS011;5168;47.854;7.944;2023-02-26T05:54:43;3.10;;;2.60;;
10246;SDS011;5168;47.854;7.944;2023-02-26T05:57:09;4.30;;;2.40;;
10246;SDS011;5168;47.854;7.944;2023-02-26T05:59:35;2.10;;;2.00;;
10246;SDS011;5168;47.854;7.944;2023-02-26T06:02:02;2.07;;;1.90;;
10246;SDS011;5168;47.854;7.944;2023-02-26T06:04:28;2.50;;;2.20;;
10246;SDS011;5168;47.854;7.944;2023-02-26T06:06:53;2.77;;;2.30;;
10246;SDS011;5168;47.854;7.944;2023-02-26T06:09:19;2.30;;;2.00;;
10246;SDS011;5168;47.854;7.944;2023-02-26T06:11:45;2.43;;;1.93;;
10246;SDS011;5168;47.854;7.944;2023-02-26T06:14:11;3.57;;;2.73;;
10246;SDS011;5168;47.854;7.944;2023-02-26T06:16:37;2.50;;;2.27;;
10246;SDS011;5168;47.854;7.944;2023-02-26T06:19:03;3.70;;;2.10;;
10246;SDS011;5168;47.854;7.944;2023-02-26T06:21:28;2.43;;;1.80;;
10246;SDS011;5168;47.854;7.944;2023-02-26T06:23:54;2.80;;;2.40;;
10246;SDS011;5168;47.854;7.944;2023-02-26T06:26:20;3.13;;;2.03;;
10246;SDS011;5168;47.854;7.944;2023-02-26T06:28:46;5.47;;;2.30;;
10246;SDS011;5168;47.854;7.944;2023-02-26T06:31:12;2.77;;;2.30;;
10246;SDS011;5168;47.854;7.944;2023-02-26T06:33:37;2.63;;;2.10;;
10246;SDS011;5168;47.854;7.944;2023-02-26T06:36:03;3.30;;;2.27;;
10246;SDS011;5168;47.854;7.944;2023-02-26T06:38:29;2.30;;;2.10;;
10246;SDS011;5168;47.854;7.944;2023-02-26T06:40:55;2.97;;;2.23;;
10246;SDS011;5168;47.854;7.944;2023-02-26T06:43:21;2.13;;;2.03;;
10246;SDS011;5168;47.854;7.944;2023-02-26T06:45:46;2.20;;;2.00;;
10246;SDS011;5168;47.854;7.944;2023-02-26T06:48:12;3.53;;;2.27;;
10246;SDS011;5168;47.854;7.944;2023-02-26T06:50:38;2.90;;;1.90;;
10246;SDS011;5168;47.854;7.944;2023-02-26T06:53:03;4.13;;;2.33;;
10246;SDS011;5168;47.854;7.944;2023-02-26T06:55:29;2.50;;;2.23;;
10246;SDS011;5168;47.854;7.944;2023-02-26T06:57:55;2.77;;;2.17;;
10246;SDS011;5168;47.854;7.944;2023-02-26T07:00:22;2.57;;;2.17;;
10246;SDS011;5168;47.854;7.944;2023-02-26T07:02:51;2.40;;;2.20;;
10246;SDS011;5168;47.854;7.944;2023-02-26T07:05:17;2.20;;;2.10;;
10246;SDS011;5168;47.854;7.944;2023-02-26T07:07:43;5.70;;;2.20;;
10246;SDS011;5168;47.854;7.944;2023-02-26T07:10:09;2.17;;;2.00;;
10246;SDS011;5168;47.854;7.944;2023-02-26T07:12:36;2.50;;;2.10;;
10246;SDS011;5168;47.854;7.944;2023-02-26T07:15:02;3.57;;;2.20;;
10246;SDS011;5168;47.854;7.944;2023-02-26T07:17:29;2.27;;;2.07;;
10246;SDS011;5168;47.854;7.944;2023-02-26T07:19:55;2.30;;;2.10;;
10246;SDS011;5168;47.854;7.944;2023-02-26T07:22:21;2.00;;;1.90;;
10246;SDS011;5168;47.854;7.944;2023-02-26T07:24:47;2.23;;;1.90;;
10246;SDS011;5168;47.854;7.944;2023-02-26T07:27:13;2.40;;;2.03;;
10246;SDS011;5168;47.854;7.944;2023-02-26T07:29:39;2.17;;;1.87;;
10246;SDS011;5168;47.854;7.944;2023-02-26T07:32:05;3.90;;;2.50;;
10246;SDS011;5168;47.854;7.944;2023-02-26T07:34:31;2.00;;;1.80;;
10246;SDS011;5168;47.854;7.944;2023-02-26T07:36:57;3.93;;;1.97;;
10246;SDS011;5168;47.854;7.944;2023-02-26T07:39:24;2.50;;;2.13;;
10246;SDS011;5168;47.854;7.944;2023-02-26T07:41:50;3.27;;;1.90;;
10246;SDS011;5168;47.854;7.944;2023-02-26T07:44:16;1.97;;;1.87;;
10246;SDS011;5168;47.854;7.944;2023-02-26T07:46:42;2.10;;;2.00;;
10246;SDS011;5168;47.854;7.944;2023-02-26T07:49:07;1.80;;;1.70;;
10246;SDS011;5168;47.854;7.944;2023-02-26T07:51:33;2.60;;;1.80;;
10246;SDS011;5168;47.854;7.944;2023-02-26T07:53:59;3.90;;;2.10;;
10246;SDS011;5168;47.854;7.944;2023-02-26T07:56:25;1.87;;;1.77;;
10246;SDS011;5168;47.854;7.944;2023-02-26T07:58:50;2.50;;;2.03;;
10246;SDS011;5168;47.854;7.944;2023-02-26T08:01:16;3.33;;;1.80;;
10246;SDS011;5168;47.854;7.944;2023-02-26T08:03:42;2.50;;;2.13;;
10246;SDS011;5168;47.854;7.944;2023-02-26T08:06:07;4.27;;;2.30;;
10246;SDS011;5168;47.854;7.944;2023-02-26T08:08:33;2.70;;;2.03;;
10246;SDS011;5168;47.854;7.944;2023-02-26T08:10:59;3.00;;;2.10;;
10246;SDS011;5168;47.854;7.944;2023-02-26T08:13:25;2.30;;;2.10;;
10246;SDS011;5168;47.854;7.944;2023-02-26T08:15:50;2.37;;;2.20;;
10246;SDS011;5168;47.854;7.944;2023-02-26T08:18:16;3.03;;;2.73;;
10246;SDS011;5168;47.854;7.944;2023-02-26T08:20:41;2.50;;;2.30;;
10246;SDS011;5168;47.854;7.944;2023-02-26T08:23:07;2.10;;;2.00;;
10246;SDS011;5168;47.854;7.944;2023-02-26T08:25:33;2.00;;;1.90;;
10246;SDS011;5168;47.854;7.944;2023-02-26T08:27:59;2.80;;;2.47;;
10246;SDS011;5168;47.854;7.944;2023-02-26T08:30:25;3.23;;;2.40;;
10246;SDS011;5168;47.854;7.944;2023-02-26T08:32:50;3.47;;;2.00;;
10246;SDS011;5168;47.854;7.944;2023-02-26T08:35:16;3.17;;;2.30;;
10246;SDS011;5168;47.854;7.944;2023-02-26T08:37:42;2.30;;;2.10;;
10246;SDS011;5168;47.854;7.944;2023-02-26T08:40:09;2.80;;;2.30;;
10246;SDS011;5168;47.854;7.944;2023-02-26T08:42:35;4.03;;;2.10;;
10246;SDS011;5168;47.854;7.944;2023-02-26T08:45:01;1.97;;;1.87;;
10246;SDS011;5168;47.854;7.944;2023-02-26T08:47:27;2.90;;;2.07;;
10246;SDS011;5168;47.854;7.944;2023-02-26T08:49:53;2.20;;;2.00;;
10246;SDS011;5168;47.854;7.944;2023-02-26T08:52:19;2.20;;;2.10;;
10246;SDS011;5168;47.854;7.944;2023-02-26T08:54:45;2.30;;;2.10;;
10246;SDS011;5168;47.854;7.944;2023-02-26T08:57:11;1.97;;;1.83;;
10246;SDS011;5168;47.854;7.944;2023-02-26T08:59:37;1.93;;;1.83;;
10246;SDS011;5168;47.854;7.944;2023-02-26T09:02:02;3.20;;;2.10;;
10246;SDS011;5168;47.854;7.944;2023-02-26T09:04:28;2.33;;;2.13;;
10246;SDS011;5168;47.854;7.944;2023-02-26T09:06:54;2.23;;;2.13;;
10246;SDS011;5168;47.854;7.944;2023-02-26T09:09:20;2.53;;;1.97;;
10246;SDS011;5168;47.854;7.944;2023-02-26T09:11:46;3.43;;;2.30;;
10246;SDS011;5168;47.854;7.944;2023-02-26T09:14:12;2.00;;;1.90;;
10246;SDS011;5168;47.854;7.944;2023-02-26T09:16:38;2.03;;;1.90;;
10246;SDS011;5168;47.854;7.944;2023-02-26T09:19:05;2.37;;;1.93;;
10246;SDS011;5168;47.854;7.944;2023-02-26T09:21:31;2.20;;;2.10;;
10246;SDS011;5168;47.854;7.944;2023-02-26T09:23:57;2.80;;;1.90;;
10246;SDS011;5168;47.854;7.944;2023-02-26T09:26:23;2.17;;;2.03;;
10246;SDS011;5168;47.854;7.944;2023-02-26T09:28:49;2.50;;;2.17;;
10246;SDS011;5168;47.854;7.944;2023-02-26T09:31:14;2.10;;;2.00;;
10246;SDS011;5168;47.854;7.944;2023-02-26T09:33:40;2.57;;;2.00;;
10246;SDS011;5168;47.854;7.944;2023-02-26T09:36:06;3.53;;;2.00;;
10246;SDS011;5168;47.854;7.944;2023-02-26T09:38:32;1.90;;;1.80;;
10246;SDS011;5168;47.854;7.944;2023-02-26T09:41:07;2.40;;;2.20;;
10246;SDS011;5168;47.854;7.944;2023-02-26T09:46:43;2.80;;;1.90;;
10246;SDS011;5168;47.854;7.944;2023-02-26T09:52:10;2.27;;;2.07;;
10246;SDS011;5168;47.854;7.944;2023-02-26T09:54:45;2.10;;;2.00;;
10246;SDS011;5168;47.854;7.944;2023-02-26T09:57:17;2.20;;;2.00;;
10246;SDS011;5168;47.854;7.944;2023-02-26T09:59:53;2.37;;;2.17;;
10246;SDS011;5168;47.854;7.944;2023-02-26T10:10:37;2.10;;;1.90;;
10246;SDS011;5168;47.854;7.944;2023-02-26T10:13:37;3.73;;;2.03;;
10246;SDS011;5168;47.854;7.944;2023-02-26T10:16:09;1.80;;;1.70;;
10246;SDS011;5168;47.854;7.944;2023-02-26T10:18:42;2.60;;;2.40;;
10246;SDS011;5168;47.854;7.944;2023-02-26T10:21:55;2.00;;;1.90;;
10246;SDS011;5168;47.854;7.944;2023-02-26T10:24:12;4.43;;;2.00;;
10246;SDS011;5168;47.854;7.944;2023-02-26T10:26:48;3.07;;;1.90;;
10246;SDS011;5168;47.854;7.944;2023-02-26T10:32:25;2.10;;;1.80;;
10246;SDS011;5168;47.854;7.944;2023-02-26T10:34:56;1.87;;;1.77;;
10246;SDS011;5168;47.854;7.944;2023-02-26T10:37:43;2.30;;;2.10;;
10246;SDS011;5168;47.854;7.944;2023-02-26T10:46:17;1.80;;;1.70;;
10246;SDS011;5168;47.854;7.944;2023-02-26T10:48:52;2.00;;;1.80;;
10246;SDS011;5168;47.854;7.944;2023-02-26T10:51:23;1.80;;;1.70;;
10246;SDS011;5168;47.854;7.944;2023-02-26T10:53:54;1.83;;;1.70;;
10246;SDS011;5168;47.854;7.944;2023-02-26T10:56:29;2.00;;;1.90;;
10246;SDS011;5168;47.854;7.944;2023-02-26T10:58:56;2.47;;;2.13;;
10246;SDS011;5168;47.854;7.944;2023-02-26T11:01:23;1.80;;;1.70;;
10246;SDS011;5168;47.854;7.944;2023-02-26T11:03:55;2.27;;;1.90;;
10246;SDS011;5168;47.854;7.944;2023-02-26T11:06:29;1.90;;;1.80;;
10246;SDS011;5168;47.854;7.944;2023-02-26T11:08:57;2.00;;;1.80;;
10246;SDS011;5168;47.854;7.944;2023-02-26T11:14:21;1.97;;;1.77;;
10246;SDS011;5168;47.854;7.944;2023-02-26T11:16:54;2.23;;;1.80;;
10246;SDS011;5168;47.854;7.944;2023-02-26T11:19:27;1.73;;;1.63;;
10246;SDS011;5168;47.854;7.944;2023-02-26T11:21:55;2.47;;;1.70;;
10246;SDS011;5168;47.854;7.944;2023-02-26T11:24:36;2.60;;;2.00;;
10246;SDS011;5168;47.854;7.944;2023-02-26T11:27:13;2.67;;;2.33;;
10246;SDS011;5168;47.854;7.944;2023-02-26T11:29:46;1.90;;;1.80;;
10246;SDS011;5168;47.854;7.944;2023-02-26T11:32:17;3.47;;;2.00;;
10246;SDS011;5168;47.854;7.944;2023-02-26T11:34:46;2.50;;;1.80;;
10246;SDS011;5168;47.854;7.944;2023-02-26T11:37:12;1.67;;;1.57;;
10246;SDS011;5168;47.854;7.944;2023-02-26T11:39:44;1.90;;;1.80;;
10246;SDS011;5168;47.854;7.944;2023-02-26T11:42:11;1.80;;;1.70;;
10246;SDS011;5168;47.854;7.944;2023-02-26T11:44:39;2.10;;;1.97;;
10246;SDS011;5168;47.854;7.944;2023-02-26T11:47:14;2.07;;;1.87;;
10246;SDS011;5168;47.854;7.944;2023-02-26T11:49:50;2.27;;;1.90;;
10246;SDS011;5168;47.854;7.944;2023-02-26T11:52:34;1.80;;;1.70;;
10246;SDS011;5168;47.854;7.944;2023-02-26T11:55:12;2.20;;;2.00;;
10246;SDS011;5168;47.854;7.944;2023-02-26T11:57:41;1.93;;;1.83;;
10246;SDS011;5168;47.854;7.944;2023-02-26T12:00:17;2.30;;;2.10;;
10246;SDS011;5168;47.854;7.944;2023-02-26T12:02:45;1.97;;;1.87;;
10246;SDS011;5168;47.854;7.944;2023-02-26T12:05:11;1.87;;;1.70;;
10246;SDS011;5168;47.854;7.944;2023-02-26T12:07:39;2.07;;;1.90;;
10246;SDS011;5168;47.854;7.944;2023-02-26T12:10:12;2.07;;;1.80;;
10246;SDS011;5168;47.854;7.944;2023-02-26T12:13:26;2.23;;;1.80;;
10246;SDS011;5168;47.854;7.944;2023-02-26T12:18:20;2.00;;;1.90;;
10246;SDS011;5168;47.854;7.944;2023-02-26T12:21:16;2.17;;;2.07;;
10246;SDS011;5168;47.854;7.944;2023-02-26T12:29:32;2.27;;;2.00;;
10246;SDS011;5168;47.854;7.944;2023-02-26T12:40:45;2.30;;;2.10;;
10246;SDS011;5168;47.854;7.944;2023-02-26T12:51:10;2.40;;;1.87;;
10246;SDS011;5168;47.854;7.944;2023-02-26T13:01:51;2.17;;;2.00;;
10246;SDS011;5168;47.854;7.944;2023-02-26T13:13:29;3.17;;;2.23;;
10246;SDS011;5168;47.854;7.944;2023-02-26T13:16:12;2.67;;;2.03;;
10246;SDS011;5168;47.854;7.944;2023-02-26T13:21:24;2.57;;;1.93;;
10246;SDS011;5168;47.854;7.944;2023-02-26T13:24:05;2.30;;;2.20;;
10246;SDS011;5168;47.854;7.944;2023-02-26T13:26:35;2.57;;;2.33;;
10246;SDS011;5168;47.854;7.944;2023-02-26T13:37:20;2.27;;;2.17;;
10246;SDS011;5168;47.854;7.944;2023-02-26T13:39:48;2.33;;;2.13;;
10246;SDS011;5168;47.854;7.944;2023-02-26T13:45:03;2.20;;;2.00;;
10246;SDS011;5168;47.854;7.944;2023-02-26T13:48:21;2.30;;;2.10;;
10246;SDS011;5168;47.854;7.944;2023-02-26T13:51:52;2.20;;;2.00;;
10246;SDS011;5168;47.854;7.944;2023-02-26T13:54:02;2.60;;;2.23;;
10246;SDS011;5168;47.854;7.944;2023-02-26T13:59:23;2.30;;;2.20;;
10246;SDS011;5168;47.854;7.944;2023-02-26T14:01:52;2.00;;;1.90;;
10246;SDS011;5168;47.854;7.944;2023-02-26T14:04:25;1.87;;;1.77;;
10246;SDS011;5168;47.854;7.944;2023-02-26T14:07:03;1.90;;;1.80;;
10246;SDS011;5168;47.854;7.944;2023-02-26T14:09:36;2.03;;;1.93;;
10246;SDS011;5168;47.854;7.944;2023-02-26T14:22:51;2.60;;;2.40;;
10246;SDS011;5168;47.854;7.944;2023-02-26T14:33:29;2.00;;;1.90;;
10246;SDS011;5168;47.854;7.944;2023-02-26T14:35:55;2.20;;;2.10;;
10246;SDS011;5168;47.854;7.944;2023-02-26T14:38:23;2.97;;;2.67;;
10246;SDS011;5168;47.854;7.944;2023-02-26T14:40:55;3.10;;;2.80;;
10246;SDS011;5168;47.854;7.944;2023-02-26T14:43:32;4.50;;;3.40;;
10246;SDS011;5168;47.854;7.944;2023-02-26T14:46:02;6.43;;;4.13;;
10246;SDS011;5168;47.854;7.944;2023-02-26T14:48:29;2.80;;;2.60;;
10246;SDS011;5168;47.854;7.944;2023-02-26T14:53:49;2.90;;;2.70;;
10246;SDS011;5168;47.854;7.944;2023-02-26T14:59:24;3.00;;;2.80;;
10246;SDS011;5168;47.854;7.944;2023-02-26T15:05:08;2.93;;;2.30;;
10246;SDS011;5168;47.854;7.944;2023-02-26T15:08:07;3.17;;;2.97;;
10246;SDS011;5168;47.854;7.944;2023-02-26T15:13:35;3.77;;;2.97;;
10246;SDS011;5168;47.854;7.944;2023-02-26T15:23:58;2.80;;;2.57;;
10246;SDS011;5168;47.854;7.944;2023-02-26T15:28:50;2.53;;;2.33;;
10246;SDS011;5168;47.854;7.944;2023-02-26T15:31:20;2.63;;;2.43;;
10246;SDS011;5168;47.854;7.944;2023-02-26T15:33:54;2.90;;;2.60;;
10246;SDS011;5168;47.854;7.944;2023-02-26T15:36:21;3.10;;;2.40;;
10246;SDS011;5168;47.854;7.944;2023-02-26T15:38:49;2.60;;;2.40;;
10246;SDS011;5168;47.854;7.944;2023-02-26T15:41:19;2.10;;;2.00;;
10246;SDS011;5168;47.854;7.944;2023-02-26T15:43:48;2.43;;;2.30;;
10246;SDS011;5168;47.854;7.944;2023-02-26T15:46:16;2.70;;;2.50;;
10246;SDS011;5168;47.854;7.944;2023-02-26T15:48:46;2.23;;;2.07;;
10246;SDS011;5168;47.854;7.944;2023-02-26T15:51:13;2.17;;;2.03;;
10246;SDS011;5168;47.854;7.944;2023-02-26T15:53:44;2.90;;;2.70;;
10246;SDS011;5168;47.854;7.944;2023-02-26T15:56:16;2.10;;;2.00;;
10246;SDS011;5168;47.854;7.944;2023-02-26T15:58:53;2.93;;;2.00;;
10246;SDS011;5168;47.854;7.944;2023-02-26T16:01:23;2.80;;;2.60;;
10246;SDS011;5168;47.854;7.944;2023-02-26T16:03:51;2.67;;;2.47;;
10246;SDS011;5168;47.854;7.944;2023-02-26T16:06:19;2.90;;;2.70;;
10246;SDS011;5168;47.854;7.944;2023-02-26T16:09:14;2.90;;;2.70;;
10246;SDS011;5168;47.854;7.944;2023-02-26T16:11:43;2.87;;;2.67;;
10246;SDS011;5168;47.854;7.944;2023-02-26T16:14:19;2.40;;;2.30;;
10246;SDS011;5168;47.854;7.944;2023-02-26T16:16:49;3.00;;;2.80;;
10246;SDS011;5168;47.854;7.944;2023-02-26T16:19:18;2.70;;;2.50;;
10246;SDS011;5168;47.854;7.944;2023-02-26T16:21:53;2.80;;;2.50;;
10246;SDS011;5168;47.854;7.944;2023-02-26T16:24:20;7.17;;;2.40;;
10246;SDS011;5168;47.854;7.944;2023-02-26T16:26:59;3.23;;;3.03;;
10246;SDS011;5168;47.854;7.944;2023-02-26T16:29:31;2.60;;;2.40;;
10246;SDS011;5168;47.854;7.944;2023-02-26T16:32:00;2.47;;;2.27;;
10246;SDS011;5168;47.854;7.944;2023-02-26T16:35:07;2.80;;;2.60;;
10246;SDS011;5168;47.854;7.944;2023-02-26T16:47:43;2.80;;;2.60;;
10246;SDS011;5168;47.854;7.944;2023-02-26T16:50:19;2.27;;;2.03;;
10246;SDS011;5168;47.854;7.944;2023-02-26T16:52:57;2.20;;;2.10;;
10246;SDS011;5168;47.854;7.944;2023-02-26T16:55:32;2.80;;;2.50;;
10246;SDS011;5168;47.854;7.944;2023-02-26T16:58:00;2.40;;;2.20;;
10246;SDS011;5168;47.854;7.944;2023-02-26T17:00:30;3.07;;;2.80;;
10246;SDS011;5168;47.854;7.944;2023-02-26T17:02:57;2.70;;;2.50;;
10246;SDS011;5168;47.854;7.944;2023-02-26T17:05:28;3.73;;;2.83;;
10246;SDS011;5168;47.854;7.944;2023-02-26T17:08:00;2.87;;;2.03;;
10246;SDS011;5168;47.854;7.944;2023-02-26T17:10:33;2.67;;;2.47;;
10246;SDS011;5168;47.854;7.944;2023-02-26T17:13:23;2.37;;;2.20;;
10246;SDS011;5168;47.854;7.944;2023-02-26T17:15:50;3.00;;;2.80;;
10246;SDS011;5168;47.854;7.944;2023-02-26T17:18:18;2.80;;;2.60;;
10246;SDS011;5168;47.854;7.944;2023-02-26T17:20:44;3.40;;;3.10;;
10246;SDS011;5168;47.854;7.944;2023-02-26T17:23:12;3.00;;;2.73;;
10246;SDS011;5168;47.854;7.944;2023-02-26T17:25:41;2.50;;;2.40;;
10246;SDS011;5168;47.854;7.944;2023-02-26T17:31:05;2.10;;;2.00;;
10246;SDS011;5168;47.854;7.944;2023-02-26T17:33:31;2.77;;;2.57;;
10246;SDS011;5168;47.854;7.944;2023-02-26T17:35:58;2.43;;;2.23;;
10246;SDS011;5168;47.854;7.944;2023-02-26T17:38:25;2.47;;;2.27;;
10246;SDS011;5168;47.854;7.944;2023-02-26T17:40:51;2.83;;;2.63;;
10246;SDS011;5168;47.854;7.944;2023-02-26T17:43:19;2.30;;;2.10;;
10246;SDS011;5168;47.854;7.944;2023-02-26T17:45:46;2.57;;;2.37;;
10246;SDS011;5168;47.854;7.944;2023-02-26T17:48:12;5.10;;;3.70;;
10246;SDS011;5168;47.854;7.944;2023-02-26T17:53:11;2.70;;;2.50;;
10246;SDS011;5168;47.854;7.944;2023-02-26T17:55:37;3.00;;;2.80;;
10246;SDS011;5168;47.854;7.944;2023-02-26T17:58:04;2.80;;;2.60;;
10246;SDS011;5168;47.854;7.944;2023-02-26T18:01:02;3.10;;;2.70;;
10246;SDS011;5168;47.854;7.944;2023-02-26T18:03:28;2.87;;;2.63;;
10246;SDS011;5168;47.854;7.944;2023-02-26T18:05:54;2.57;;;2.37;;
10246;SDS011;5168;47.854;7.944;2023-02-26T18:08:22;4.27;;;3.20;;
10246;SDS011;5168;47.854;7.944;2023-02-26T18:10:53;3.83;;;3.43;;
10246;SDS011;5168;47.854;7.944;2023-02-26T18:13:19;3.17;;;2.50;;
10246;SDS011;5168;47.854;7.944;2023-02-26T18:15:45;5.17;;;3.33;;
10246;SDS011;5168;47.854;7.944;2023-02-26T18:18:12;2.97;;;2.67;;
10246;SDS011;5168;47.854;7.944;2023-02-26T18:20:39;3.47;;;3.13;;